sensor_id;sensor_type;location;lat;lon;timestamp;temperature;humidity
27801;DHT22;15181;49.112;11.930;2022-10-16T00:00:38;14.60;99.90
27801;DHT22;15181;49.112;11.930;2022-10-16T00:03:05;14.60;99.90
27801;DHT22;15181;49.112;11.930;2022-10-16T00:05:32;14.50;99.90
27801;DHT22;15181;49.112;11.930;2022-10-16T00:07:59;14.50;99.90
27801;DHT22;15181;49.112;11.930;2022-10-16T00:10:28;14.50;99.90
27801;DHT22;15181;49.112;11.930;2022-10-16T00:12:56;14.50;99.90
27801;DHT22;15181;49.112;11.930;2022-10-16T00:15:23;14.50;99.90
27801;DHT22;15181;49.112;11.930;2022-10-16T00:17:50;14.40;99.90
27801;DHT22;15181;49.112;11.930;2022-10-16T00:20:17;14.50;99.90
27801;DHT22;15181;49.112;11.930;2022-10-16T00:22:44;14.40;99.90
27801;DHT22;15181;49.112;11.930;2022-10-16T00:25:11;14.50;99.90
27801;DHT22;15181;49.112;11.930;2022-10-16T00:27:38;14.50;99.90
27801;DHT22;15181;49.112;11.930;2022-10-16T00:30:08;14.50;99.90
27801;DHT22;15181;49.112;11.930;2022-10-16T00:32:35;14.50;99.90
27801;DHT22;15181;49.112;11.930;2022-10-16T00:35:02;14.50;99.90
27801;DHT22;15181;49.112;11.930;2022-10-16T00:37:29;14.60;99.90
27801;DHT22;15181;49.112;11.930;2022-10-16T00:39:56;14.60;99.90
27801;DHT22;15181;49.112;11.930;2022-10-16T00:42:23;14.60;99.90
27801;DHT22;15181;49.112;11.930;2022-10-16T00:44:51;14.60;99.90
27801;DHT22;15181;49.112;11.930;2022-10-16T00:47:24;14.50;99.90
27801;DHT22;15181;49.112;11.930;2022-10-16T00:49:57;14.50;99.90
27801;DHT22;15181;49.112;11.930;2022-10-16T00:52:25;14.40;99.90
27801;DHT22;15181;49.112;11.930;2022-10-16T00:54:52;14.40;99.90
27801;DHT22;15181;49.112;11.930;2022-10-16T00:57:20;14.40;99.90
27801;DHT22;15181;49.112;11.930;2022-10-16T00:59:47;14.40;99.90
27801;DHT22;15181;49.112;11.930;2022-10-16T01:02:15;14.40;99.90
27801;DHT22;15181;49.112;11.930;2022-10-16T01:04:46;14.40;99.90
27801;DHT22;15181;49.112;11.930;2022-10-16T01:07:19;14.50;99.90
27801;DHT22;15181;49.112;11.930;2022-10-16T01:09:57;14.50;99.90
27801;DHT22;15181;49.112;11.930;2022-10-16T01:12:36;14.50;99.90
27801;DHT22;15181;49.112;11.930;2022-10-16T01:15:10;14.30;99.90
27801;DHT22;15181;49.112;11.930;2022-10-16T01:17:43;14.30;99.90
27801;DHT22;15181;49.112;11.930;2022-10-16T01:20:19;14.30;99.90
27801;DHT22;15181;49.112;11.930;2022-10-16T01:23:01;14.30;99.90
27801;DHT22;15181;49.112;11.930;2022-10-16T01:28:22;14.30;99.90
27801;DHT22;15181;49.112;11.930;2022-10-16T01:30:55;14.30;99.90
27801;DHT22;15181;49.112;11.930;2022-10-16T01:33:28;14.30;99.90
27801;DHT22;15181;49.112;11.930;2022-10-16T01:35:59;14.40;99.90
27801;DHT22;15181;49.112;11.930;2022-10-16T01:38:30;14.40;99.90
27801;DHT22;15181;49.112;11.930;2022-10-16T01:41:01;14.40;99.90
27801;DHT22;15181;49.112;11.930;2022-10-16T01:43:36;14.40;99.90
27801;DHT22;15181;49.112;11.930;2022-10-16T01:46:05;14.50;99.90
27801;DHT22;15181;49.112;11.930;2022-10-16T01:48:34;14.50;99.90
27801;DHT22;15181;49.112;11.930;2022-10-16T01:51:06;14.50;99.90
27801;DHT22;15181;49.112;11.930;2022-10-16T01:53:33;14.50;99.90
27801;DHT22;15181;49.112;11.930;2022-10-16T01:56:03;14.50;99.90
27801;DHT22;15181;49.112;11.930;2022-10-16T01:58:36;14.40;99.90
27801;DHT22;15181;49.112;11.930;2022-10-16T02:01:04;14.30;99.90
27801;DHT22;15181;49.112;11.930;2022-10-16T02:03:35;14.30;99.90
27801;DHT22;15181;49.112;11.930;2022-10-16T02:06:03;14.30;99.90
27801;DHT22;15181;49.112;11.930;2022-10-16T02:08:30;14.30;99.90
27801;DHT22;15181;49.112;11.930;2022-10-16T02:10:59;14.30;99.90
27801;DHT22;15181;49.112;11.930;2022-10-16T02:13:31;14.30;99.90
27801;DHT22;15181;49.112;11.930;2022-10-16T02:16:01;14.30;99.90
27801;DHT22;15181;49.112;11.930;2022-10-16T02:18:28;14.30;99.90
27801;DHT22;15181;49.112;11.930;2022-10-16T02:20:59;14.30;99.90
27801;DHT22;15181;49.112;11.930;2022-10-16T02:23:34;14.30;99.90
27801;DHT22;15181;49.112;11.930;2022-10-16T02:26:05;14.30;99.90
27801;DHT22;15181;49.112;11.930;2022-10-16T02:28:39;14.40;99.90
27801;DHT22;15181;49.112;11.930;2022-10-16T02:31:11;14.40;99.90
27801;DHT22;15181;49.112;11.930;2022-10-16T02:33:40;14.40;99.90
27801;DHT22;15181;49.112;11.930;2022-10-16T02:36:09;14.40;99.90
27801;DHT22;15181;49.112;11.930;2022-10-16T02:38:36;14.30;99.90
27801;DHT22;15181;49.112;11.930;2022-10-16T02:41:04;14.40;99.90
27801;DHT22;15181;49.112;11.930;2022-10-16T02:43:31;14.40;99.90
27801;DHT22;15181;49.112;11.930;2022-10-16T02:45:59;14.40;99.90
27801;DHT22;15181;49.112;11.930;2022-10-16T02:48:27;14.40;99.90
27801;DHT22;15181;49.112;11.930;2022-10-16T02:50:54;14.40;99.90
27801;DHT22;15181;49.112;11.930;2022-10-16T02:53:22;14.40;99.90
27801;DHT22;15181;49.112;11.930;2022-10-16T02:55:49;14.40;99.90
27801;DHT22;15181;49.112;11.930;2022-10-16T02:58:16;14.50;99.90
27801;DHT22;15181;49.112;11.930;2022-10-16T03:00:43;14.40;99.90
27801;DHT22;15181;49.112;11.930;2022-10-16T03:03:10;14.40;99.90
27801;DHT22;15181;49.112;11.930;2022-10-16T03:05:38;14.40;99.90
27801;DHT22;15181;49.112;11.930;2022-10-16T03:08:05;14.40;99.90
27801;DHT22;15181;49.112;11.930;2022-10-16T03:10:32;14.30;99.90
27801;DHT22;15181;49.112;11.930;2022-10-16T03:12:59;14.30;99.90
27801;DHT22;15181;49.112;11.930;2022-10-16T03:15:26;14.30;99.90
27801;DHT22;15181;49.112;11.930;2022-10-16T03:17:53;14.30;99.90
27801;DHT22;15181;49.112;11.930;2022-10-16T03:20:20;14.40;99.90
27801;DHT22;15181;49.112;11.930;2022-10-16T03:22:49;14.40;99.90
27801;DHT22;15181;49.112;11.930;2022-10-16T03:25:15;14.40;99.90
27801;DHT22;15181;49.112;11.930;2022-10-16T03:27:42;14.50;99.90
27801;DHT22;15181;49.112;11.930;2022-10-16T03:30:10;14.50;99.90
27801;DHT22;15181;49.112;11.930;2022-10-16T03:32:37;14.50;99.90
27801;DHT22;15181;49.112;11.930;2022-10-16T03:35:05;14.50;99.90
27801;DHT22;15181;49.112;11.930;2022-10-16T03:37:32;14.50;99.90
27801;DHT22;15181;49.112;11.930;2022-10-16T03:40:00;14.50;99.90
27801;DHT22;15181;49.112;11.930;2022-10-16T03:42:27;14.50;99.90
27801;DHT22;15181;49.112;11.930;2022-10-16T03:44:54;14.50;99.90
27801;DHT22;15181;49.112;11.930;2022-10-16T03:47:20;14.50;99.90
27801;DHT22;15181;49.112;11.930;2022-10-16T03:49:49;14.60;99.90
27801;DHT22;15181;49.112;11.930;2022-10-16T03:52:16;14.50;99.90
27801;DHT22;15181;49.112;11.930;2022-10-16T03:54:43;14.50;99.90
27801;DHT22;15181;49.112;11.930;2022-10-16T03:57:11;14.40;99.90
27801;DHT22;15181;49.112;11.930;2022-10-16T03:59:38;14.40;99.90
27801;DHT22;15181;49.112;11.930;2022-10-16T04:02:05;14.40;99.90
27801;DHT22;15181;49.112;11.930;2022-10-16T04:04:32;14.30;99.90
27801;DHT22;15181;49.112;11.930;2022-10-16T04:06:58;14.20;99.90
27801;DHT22;15181;49.112;11.930;2022-10-16T04:09:25;14.20;99.90
27801;DHT22;15181;49.112;11.930;2022-10-16T04:11:52;14.20;99.90
27801;DHT22;15181;49.112;11.930;2022-10-16T04:14:21;14.20;99.90
27801;DHT22;15181;49.112;11.930;2022-10-16T04:16:47;14.20;99.90
27801;DHT22;15181;49.112;11.930;2022-10-16T04:19:14;14.30;99.90
27801;DHT22;15181;49.112;11.930;2022-10-16T04:21:41;14.20;99.90
27801;DHT22;15181;49.112;11.930;2022-10-16T04:24:08;14.20;99.90
27801;DHT22;15181;49.112;11.930;2022-10-16T04:26:37;14.10;99.90
27801;DHT22;15181;49.112;11.930;2022-10-16T04:29:03;14.00;99.90
27801;DHT22;15181;49.112;11.930;2022-10-16T04:31:33;13.90;99.90
27801;DHT22;15181;49.112;11.930;2022-10-16T04:33:59;13.90;99.90
27801;DHT22;15181;49.112;11.930;2022-10-16T04:36:26;13.90;99.90
27801;DHT22;15181;49.112;11.930;2022-10-16T04:38:54;13.80;99.90
27801;DHT22;15181;49.112;11.930;2022-10-16T04:41:20;13.80;99.90
27801;DHT22;15181;49.112;11.930;2022-10-16T04:43:47;13.80;99.90
27801;DHT22;15181;49.112;11.930;2022-10-16T04:46:14;13.90;99.90
27801;DHT22;15181;49.112;11.930;2022-10-16T04:48:42;13.90;99.90
27801;DHT22;15181;49.112;11.930;2022-10-16T04:51:09;13.90;99.90
27801;DHT22;15181;49.112;11.930;2022-10-16T04:53:36;13.90;99.90
27801;DHT22;15181;49.112;11.930;2022-10-16T04:56:03;13.80;99.90
27801;DHT22;15181;49.112;11.930;2022-10-16T04:58:30;13.80;99.90
27801;DHT22;15181;49.112;11.930;2022-10-16T05:00:58;13.80;99.90
27801;DHT22;15181;49.112;11.930;2022-10-16T05:03:25;13.90;99.90
27801;DHT22;15181;49.112;11.930;2022-10-16T05:05:53;13.80;99.90
27801;DHT22;15181;49.112;11.930;2022-10-16T05:08:20;13.80;99.90
27801;DHT22;15181;49.112;11.930;2022-10-16T05:10:47;13.80;99.90
27801;DHT22;15181;49.112;11.930;2022-10-16T05:13:14;13.90;99.90
27801;DHT22;15181;49.112;11.930;2022-10-16T05:15:41;14.00;99.90
27801;DHT22;15181;49.112;11.930;2022-10-16T05:18:08;14.00;99.90
27801;DHT22;15181;49.112;11.930;2022-10-16T05:20:35;13.90;99.90
27801;DHT22;15181;49.112;11.930;2022-10-16T05:23:04;13.90;99.90
27801;DHT22;15181;49.112;11.930;2022-10-16T05:25:30;13.90;99.90
27801;DHT22;15181;49.112;11.930;2022-10-16T05:27:57;13.90;99.90
27801;DHT22;15181;49.112;11.930;2022-10-16T05:30:24;13.90;99.90
27801;DHT22;15181;49.112;11.930;2022-10-16T05:32:51;13.90;99.90
27801;DHT22;15181;49.112;11.930;2022-10-16T05:35:19;13.90;99.90
27801;DHT22;15181;49.112;11.930;2022-10-16T05:37:47;14.00;99.90
27801;DHT22;15181;49.112;11.930;2022-10-16T05:40:15;14.00;99.90
27801;DHT22;15181;49.112;11.930;2022-10-16T05:42:42;13.90;99.90
27801;DHT22;15181;49.112;11.930;2022-10-16T05:45:10;13.80;99.90
27801;DHT22;15181;49.112;11.930;2022-10-16T05:47:38;13.80;99.90
27801;DHT22;15181;49.112;11.930;2022-10-16T05:50:05;13.80;99.90
27801;DHT22;15181;49.112;11.930;2022-10-16T05:52:32;13.80;99.90
27801;DHT22;15181;49.112;11.930;2022-10-16T05:54:59;13.90;99.90
27801;DHT22;15181;49.112;11.930;2022-10-16T05:57:28;13.80;99.90
27801;DHT22;15181;49.112;11.930;2022-10-16T05:59:55;13.80;99.90
27801;DHT22;15181;49.112;11.930;2022-10-16T06:02:22;13.80;99.90
27801;DHT22;15181;49.112;11.930;2022-10-16T06:04:50;13.80;99.90
27801;DHT22;15181;49.112;11.930;2022-10-16T06:07:19;13.80;99.90
27801;DHT22;15181;49.112;11.930;2022-10-16T06:09:48;13.90;99.90
27801;DHT22;15181;49.112;11.930;2022-10-16T06:12:15;13.90;99.90
27801;DHT22;15181;49.112;11.930;2022-10-16T06:14:44;14.00;99.90
27801;DHT22;15181;49.112;11.930;2022-10-16T06:17:12;14.00;99.90
27801;DHT22;15181;49.112;11.930;2022-10-16T06:19:39;14.00;99.90
27801;DHT22;15181;49.112;11.930;2022-10-16T06:22:06;14.00;99.90
27801;DHT22;15181;49.112;11.930;2022-10-16T06:24:33;14.00;99.90
27801;DHT22;15181;49.112;11.930;2022-10-16T06:27:00;14.00;99.90
27801;DHT22;15181;49.112;11.930;2022-10-16T06:29:27;14.10;99.90
27801;DHT22;15181;49.112;11.930;2022-10-16T06:31:55;14.10;99.90
27801;DHT22;15181;49.112;11.930;2022-10-16T06:34:22;14.10;99.90
27801;DHT22;15181;49.112;11.930;2022-10-16T06:36:49;14.20;99.90
27801;DHT22;15181;49.112;11.930;2022-10-16T06:39:16;14.10;99.90
27801;DHT22;15181;49.112;11.930;2022-10-16T06:41:43;14.10;99.90
27801;DHT22;15181;49.112;11.930;2022-10-16T06:44:10;14.20;99.90
27801;DHT22;15181;49.112;11.930;2022-10-16T06:46:37;14.20;99.90
27801;DHT22;15181;49.112;11.930;2022-10-16T06:49:05;14.30;99.90
27801;DHT22;15181;49.112;11.930;2022-10-16T06:51:32;14.30;99.90
27801;DHT22;15181;49.112;11.930;2022-10-16T06:54:01;14.40;99.90
27801;DHT22;15181;49.112;11.930;2022-10-16T06:56:28;14.40;99.90
27801;DHT22;15181;49.112;11.930;2022-10-16T06:58:56;14.50;99.90
27801;DHT22;15181;49.112;11.930;2022-10-16T07:01:25;14.50;99.90
27801;DHT22;15181;49.112;11.930;2022-10-16T07:03:53;14.60;99.90
27801;DHT22;15181;49.112;11.930;2022-10-16T07:06:23;14.60;99.90
27801;DHT22;15181;49.112;11.930;2022-10-16T07:08:50;14.60;99.90
27801;DHT22;15181;49.112;11.930;2022-10-16T07:11:19;14.70;99.90
27801;DHT22;15181;49.112;11.930;2022-10-16T07:13:47;14.80;99.90
27801;DHT22;15181;49.112;11.930;2022-10-16T07:16:16;14.80;99.90
27801;DHT22;15181;49.112;11.930;2022-10-16T07:18:44;14.90;99.90
27801;DHT22;15181;49.112;11.930;2022-10-16T07:21:14;14.90;99.90
27801;DHT22;15181;49.112;11.930;2022-10-16T07:23:43;14.90;99.90
27801;DHT22;15181;49.112;11.930;2022-10-16T07:26:11;14.90;99.90
27801;DHT22;15181;49.112;11.930;2022-10-16T07:28:38;15.00;99.90
27801;DHT22;15181;49.112;11.930;2022-10-16T07:31:07;15.00;99.90
27801;DHT22;15181;49.112;11.930;2022-10-16T07:33:36;15.00;99.90
27801;DHT22;15181;49.112;11.930;2022-10-16T07:36:04;15.00;99.90
27801;DHT22;15181;49.112;11.930;2022-10-16T07:38:31;15.00;99.90
27801;DHT22;15181;49.112;11.930;2022-10-16T07:41:01;15.10;99.90
27801;DHT22;15181;49.112;11.930;2022-10-16T07:43:28;15.20;99.90
27801;DHT22;15181;49.112;11.930;2022-10-16T07:45:56;15.40;99.90
27801;DHT22;15181;49.112;11.930;2022-10-16T07:48:23;15.40;99.90
27801;DHT22;15181;49.112;11.930;2022-10-16T07:50:50;15.70;99.90
27801;DHT22;15181;49.112;11.930;2022-10-16T07:53:17;15.80;99.90
27801;DHT22;15181;49.112;11.930;2022-10-16T07:55:44;15.90;99.90
27801;DHT22;15181;49.112;11.930;2022-10-16T07:58:12;15.90;99.90
27801;DHT22;15181;49.112;11.930;2022-10-16T08:00:39;15.90;99.90
27801;DHT22;15181;49.112;11.930;2022-10-16T08:03:07;15.90;99.90
27801;DHT22;15181;49.112;11.930;2022-10-16T08:05:34;16.00;99.90
27801;DHT22;15181;49.112;11.930;2022-10-16T08:08:01;16.00;99.90
27801;DHT22;15181;49.112;11.930;2022-10-16T08:10:29;16.10;99.90
27801;DHT22;15181;49.112;11.930;2022-10-16T08:12:57;16.20;99.90
27801;DHT22;15181;49.112;11.930;2022-10-16T08:15:25;16.40;99.90
27801;DHT22;15181;49.112;11.930;2022-10-16T08:17:57;16.50;99.90
27801;DHT22;15181;49.112;11.930;2022-10-16T08:20:25;16.50;99.90
27801;DHT22;15181;49.112;11.930;2022-10-16T08:22:52;16.50;99.90
27801;DHT22;15181;49.112;11.930;2022-10-16T08:25:19;16.40;99.90
27801;DHT22;15181;49.112;11.930;2022-10-16T08:27:46;16.40;99.90
27801;DHT22;15181;49.112;11.930;2022-10-16T08:30:14;16.40;99.90
27801;DHT22;15181;49.112;11.930;2022-10-16T08:32:42;16.40;99.90
27801;DHT22;15181;49.112;11.930;2022-10-16T08:35:10;16.30;99.90
27801;DHT22;15181;49.112;11.930;2022-10-16T08:37:37;16.30;99.90
27801;DHT22;15181;49.112;11.930;2022-10-16T08:40:06;16.40;99.90
27801;DHT22;15181;49.112;11.930;2022-10-16T08:42:52;16.50;99.90
27801;DHT22;15181;49.112;11.930;2022-10-16T08:45:39;16.60;99.90
27801;DHT22;15181;49.112;11.930;2022-10-16T08:48:17;16.80;99.90
27801;DHT22;15181;49.112;11.930;2022-10-16T08:50:48;16.90;99.90
27801;DHT22;15181;49.112;11.930;2022-10-16T08:53:20;17.00;99.90
27801;DHT22;15181;49.112;11.930;2022-10-16T08:55:50;16.90;99.90
27801;DHT22;15181;49.112;11.930;2022-10-16T08:58:19;16.80;99.90
27801;DHT22;15181;49.112;11.930;2022-10-16T09:00:48;16.80;99.90
27801;DHT22;15181;49.112;11.930;2022-10-16T09:03:33;16.80;99.90
27801;DHT22;15181;49.112;11.930;2022-10-16T09:06:37;16.80;99.90
27801;DHT22;15181;49.112;11.930;2022-10-16T09:09:24;16.80;99.90
27801;DHT22;15181;49.112;11.930;2022-10-16T09:12:00;16.80;99.90
27801;DHT22;15181;49.112;11.930;2022-10-16T09:15:01;16.70;99.90
27801;DHT22;15181;49.112;11.930;2022-10-16T09:17:37;16.80;99.90
27801;DHT22;15181;49.112;11.930;2022-10-16T09:20:24;16.80;99.90
27801;DHT22;15181;49.112;11.930;2022-10-16T09:22:58;16.80;99.90
27801;DHT22;15181;49.112;11.930;2022-10-16T09:25:26;16.90;99.90
27801;DHT22;15181;49.112;11.930;2022-10-16T09:27:53;17.00;99.90
27801;DHT22;15181;49.112;11.930;2022-10-16T09:30:21;17.20;99.90
27801;DHT22;15181;49.112;11.930;2022-10-16T09:32:50;17.40;99.90
27801;DHT22;15181;49.112;11.930;2022-10-16T09:35:21;17.50;99.90
27801;DHT22;15181;49.112;11.930;2022-10-16T09:37:51;17.70;99.90
27801;DHT22;15181;49.112;11.930;2022-10-16T09:40:28;17.90;99.90
27801;DHT22;15181;49.112;11.930;2022-10-16T09:43:02;18.00;99.90
27801;DHT22;15181;49.112;11.930;2022-10-16T09:45:30;18.00;99.90
27801;DHT22;15181;49.112;11.930;2022-10-16T09:47:57;18.00;99.90
27801;DHT22;15181;49.112;11.930;2022-10-16T09:50:28;18.00;99.90
27801;DHT22;15181;49.112;11.930;2022-10-16T09:53:05;18.10;99.90
27801;DHT22;15181;49.112;11.930;2022-10-16T09:55:32;18.30;99.90
27801;DHT22;15181;49.112;11.930;2022-10-16T09:57:59;18.40;99.90
27801;DHT22;15181;49.112;11.930;2022-10-16T10:00:26;18.50;99.90
27801;DHT22;15181;49.112;11.930;2022-10-16T10:02:53;18.60;99.90
27801;DHT22;15181;49.112;11.930;2022-10-16T10:05:22;18.60;99.90
27801;DHT22;15181;49.112;11.930;2022-10-16T10:07:56;18.80;99.90
27801;DHT22;15181;49.112;11.930;2022-10-16T10:10:26;18.90;99.90
27801;DHT22;15181;49.112;11.930;2022-10-16T10:12:54;19.00;99.90
27801;DHT22;15181;49.112;11.930;2022-10-16T10:15:22;19.10;99.90
27801;DHT22;15181;49.112;11.930;2022-10-16T10:17:51;19.30;99.90
27801;DHT22;15181;49.112;11.930;2022-10-16T10:20:24;19.50;99.90
27801;DHT22;15181;49.112;11.930;2022-10-16T10:22:51;19.70;99.90
27801;DHT22;15181;49.112;11.930;2022-10-16T10:25:42;19.80;99.90
27801;DHT22;15181;49.112;11.930;2022-10-16T10:31:12;19.90;99.90
27801;DHT22;15181;49.112;11.930;2022-10-16T10:33:44;20.00;99.90
27801;DHT22;15181;49.112;11.930;2022-10-16T10:36:27;20.10;99.90
27801;DHT22;15181;49.112;11.930;2022-10-16T10:38:58;20.20;99.90
27801;DHT22;15181;49.112;11.930;2022-10-16T10:41:56;20.20;99.90
27801;DHT22;15181;49.112;11.930;2022-10-16T10:44:54;20.10;99.90
27801;DHT22;15181;49.112;11.930;2022-10-16T10:47:28;20.10;99.90
27801;DHT22;15181;49.112;11.930;2022-10-16T10:50:05;20.10;99.90
27801;DHT22;15181;49.112;11.930;2022-10-16T10:52:43;20.00;99.90
27801;DHT22;15181;49.112;11.930;2022-10-16T10:55:22;20.00;99.90
27801;DHT22;15181;49.112;11.930;2022-10-16T11:00:53;20.00;99.90
27801;DHT22;15181;49.112;11.930;2022-10-16T11:03:35;20.10;99.90
27801;DHT22;15181;49.112;11.930;2022-10-16T11:06:09;20.10;99.90
27801;DHT22;15181;49.112;11.930;2022-10-16T11:08:41;20.10;99.90
27801;DHT22;15181;49.112;11.930;2022-10-16T11:11:12;20.10;99.90
27801;DHT22;15181;49.112;11.930;2022-10-16T11:13:48;20.20;99.90
27801;DHT22;15181;49.112;11.930;2022-10-16T11:16:23;20.20;99.90
27801;DHT22;15181;49.112;11.930;2022-10-16T11:19:01;20.20;99.90
27801;DHT22;15181;49.112;11.930;2022-10-16T11:21:34;20.20;99.90
27801;DHT22;15181;49.112;11.930;2022-10-16T11:24:11;20.10;99.90
27801;DHT22;15181;49.112;11.930;2022-10-16T11:26:42;20.20;99.90
27801;DHT22;15181;49.112;11.930;2022-10-16T11:29:16;20.20;99.90
27801;DHT22;15181;49.112;11.930;2022-10-16T11:31:48;20.10;99.90
27801;DHT22;15181;49.112;11.930;2022-10-16T11:34:24;20.20;99.90
27801;DHT22;15181;49.112;11.930;2022-10-16T11:36:53;20.20;99.90
27801;DHT22;15181;49.112;11.930;2022-10-16T11:39:21;20.20;99.90
27801;DHT22;15181;49.112;11.930;2022-10-16T11:41:51;20.30;99.90
27801;DHT22;15181;49.112;11.930;2022-10-16T11:44:35;20.30;99.90
27801;DHT22;15181;49.112;11.930;2022-10-16T11:47:12;20.40;99.90
27801;DHT22;15181;49.112;11.930;2022-10-16T11:49:43;20.50;99.90
27801;DHT22;15181;49.112;11.930;2022-10-16T11:52:16;20.50;99.90
27801;DHT22;15181;49.112;11.930;2022-10-16T11:54:51;20.50;99.90
27801;DHT22;15181;49.112;11.930;2022-10-16T11:57:22;20.50;99.90
27801;DHT22;15181;49.112;11.930;2022-10-16T11:59:56;20.50;99.90
27801;DHT22;15181;49.112;11.930;2022-10-16T12:05:22;20.50;99.90
27801;DHT22;15181;49.112;11.930;2022-10-16T12:07:57;20.60;99.90
27801;DHT22;15181;49.112;11.930;2022-10-16T12:10:29;20.70;99.90
27801;DHT22;15181;49.112;11.930;2022-10-16T12:12:57;20.70;99.90
27801;DHT22;15181;49.112;11.930;2022-10-16T12:15:27;20.80;99.90
27801;DHT22;15181;49.112;11.930;2022-10-16T12:17:55;20.90;99.90
27801;DHT22;15181;49.112;11.930;2022-10-16T12:20:28;20.90;99.90
27801;DHT22;15181;49.112;11.930;2022-10-16T12:23:00;20.90;99.90
27801;DHT22;15181;49.112;11.930;2022-10-16T12:25:29;20.90;99.90
27801;DHT22;15181;49.112;11.930;2022-10-16T12:27:58;21.00;99.90
27801;DHT22;15181;49.112;11.930;2022-10-16T12:30:29;21.00;99.90
27801;DHT22;15181;49.112;11.930;2022-10-16T12:32:58;21.00;99.90
27801;DHT22;15181;49.112;11.930;2022-10-16T12:35:28;21.00;99.90
27801;DHT22;15181;49.112;11.930;2022-10-16T12:38:12;21.00;99.90
27801;DHT22;15181;49.112;11.930;2022-10-16T12:40:43;20.90;99.90
27801;DHT22;15181;49.112;11.930;2022-10-16T12:43:35;21.00;99.90
27801;DHT22;15181;49.112;11.930;2022-10-16T12:46:21;21.00;99.90
27801;DHT22;15181;49.112;11.930;2022-10-16T12:48:49;21.00;99.90
27801;DHT22;15181;49.112;11.930;2022-10-16T12:51:24;21.00;99.90
27801;DHT22;15181;49.112;11.930;2022-10-16T12:54:01;21.00;99.90
27801;DHT22;15181;49.112;11.930;2022-10-16T12:56:37;21.10;99.90
27801;DHT22;15181;49.112;11.930;2022-10-16T12:59:12;21.10;99.90
27801;DHT22;15181;49.112;11.930;2022-10-16T13:02:04;21.20;99.90
27801;DHT22;15181;49.112;11.930;2022-10-16T13:04:55;21.20;99.90
27801;DHT22;15181;49.112;11.930;2022-10-16T13:07:55;21.20;99.90
27801;DHT22;15181;49.112;11.930;2022-10-16T13:10:28;21.20;99.90
27801;DHT22;15181;49.112;11.930;2022-10-16T13:13:19;21.20;99.90
27801;DHT22;15181;49.112;11.930;2022-10-16T13:15:59;21.20;99.90
27801;DHT22;15181;49.112;11.930;2022-10-16T13:18:38;21.20;99.90
27801;DHT22;15181;49.112;11.930;2022-10-16T13:21:24;21.20;99.90
27801;DHT22;15181;49.112;11.930;2022-10-16T13:23:56;21.30;99.90
27801;DHT22;15181;49.112;11.930;2022-10-16T13:26:34;21.20;99.90
27801;DHT22;15181;49.112;11.930;2022-10-16T13:29:04;21.30;99.90
27801;DHT22;15181;49.112;11.930;2022-10-16T13:31:32;21.30;99.90
27801;DHT22;15181;49.112;11.930;2022-10-16T13:34:01;21.30;99.90
27801;DHT22;15181;49.112;11.930;2022-10-16T13:36:29;21.30;99.90
27801;DHT22;15181;49.112;11.930;2022-10-16T13:39:10;21.30;99.90
27801;DHT22;15181;49.112;11.930;2022-10-16T13:41:38;21.30;99.90
27801;DHT22;15181;49.112;11.930;2022-10-16T13:44:07;21.30;99.90
27801;DHT22;15181;49.112;11.930;2022-10-16T13:46:35;21.40;99.90
27801;DHT22;15181;49.112;11.930;2022-10-16T13:49:05;21.40;99.90
27801;DHT22;15181;49.112;11.930;2022-10-16T13:51:33;21.40;99.90
27801;DHT22;15181;49.112;11.930;2022-10-16T13:54:00;21.40;99.90
27801;DHT22;15181;49.112;11.930;2022-10-16T13:56:29;21.40;99.90
27801;DHT22;15181;49.112;11.930;2022-10-16T13:58:59;21.40;99.90
27801;DHT22;15181;49.112;11.930;2022-10-16T14:01:29;21.40;99.90
27801;DHT22;15181;49.112;11.930;2022-10-16T14:04:04;21.40;99.90
27801;DHT22;15181;49.112;11.930;2022-10-16T14:06:32;21.40;99.90
27801;DHT22;15181;49.112;11.930;2022-10-16T14:09:03;21.40;99.90
27801;DHT22;15181;49.112;11.930;2022-10-16T14:11:31;21.40;99.90
27801;DHT22;15181;49.112;11.930;2022-10-16T14:13:59;21.30;99.90
27801;DHT22;15181;49.112;11.930;2022-10-16T14:16:29;21.30;99.90
27801;DHT22;15181;49.112;11.930;2022-10-16T14:18:58;21.20;99.90
27801;DHT22;15181;49.112;11.930;2022-10-16T14:21:28;21.20;99.90
27801;DHT22;15181;49.112;11.930;2022-10-16T14:23:55;21.20;99.90
27801;DHT22;15181;49.112;11.930;2022-10-16T14:26:24;21.20;99.90
27801;DHT22;15181;49.112;11.930;2022-10-16T14:29:08;21.10;99.90
27801;DHT22;15181;49.112;11.930;2022-10-16T14:31:36;21.10;99.90
27801;DHT22;15181;49.112;11.930;2022-10-16T14:34:26;21.00;99.90
27801;DHT22;15181;49.112;11.930;2022-10-16T14:36:56;21.00;99.90
27801;DHT22;15181;49.112;11.930;2022-10-16T14:39:25;21.00;99.90
27801;DHT22;15181;49.112;11.930;2022-10-16T14:41:54;20.90;99.90
27801;DHT22;15181;49.112;11.930;2022-10-16T14:44:26;20.90;99.90
27801;DHT22;15181;49.112;11.930;2022-10-16T14:46:54;20.80;99.90
27801;DHT22;15181;49.112;11.930;2022-10-16T14:49:22;20.70;99.90
27801;DHT22;15181;49.112;11.930;2022-10-16T14:51:50;20.60;99.90
27801;DHT22;15181;49.112;11.930;2022-10-16T14:54:19;20.50;99.90
27801;DHT22;15181;49.112;11.930;2022-10-16T14:56:48;20.40;99.90
27801;DHT22;15181;49.112;11.930;2022-10-16T14:59:19;20.30;99.90
27801;DHT22;15181;49.112;11.930;2022-10-16T15:01:46;20.30;99.90
27801;DHT22;15181;49.112;11.930;2022-10-16T15:04:14;20.30;99.90
27801;DHT22;15181;49.112;11.930;2022-10-16T15:06:41;20.20;99.90
27801;DHT22;15181;49.112;11.930;2022-10-16T15:09:08;19.90;99.90
27801;DHT22;15181;49.112;11.930;2022-10-16T15:11:37;19.90;99.90
27801;DHT22;15181;49.112;11.930;2022-10-16T15:14:04;19.90;99.90
27801;DHT22;15181;49.112;11.930;2022-10-16T15:16:31;19.80;99.90
27801;DHT22;15181;49.112;11.930;2022-10-16T15:18:58;19.70;99.90
27801;DHT22;15181;49.112;11.930;2022-10-16T15:21:27;19.50;99.90
27801;DHT22;15181;49.112;11.930;2022-10-16T15:23:55;19.40;99.90
27801;DHT22;15181;49.112;11.930;2022-10-16T15:26:23;19.30;99.90
27801;DHT22;15181;49.112;11.930;2022-10-16T15:28:51;19.20;99.90
27801;DHT22;15181;49.112;11.930;2022-10-16T15:31:19;19.10;99.90
27801;DHT22;15181;49.112;11.930;2022-10-16T15:33:49;19.10;99.90
27801;DHT22;15181;49.112;11.930;2022-10-16T15:36:25;19.10;99.90
27801;DHT22;15181;49.112;11.930;2022-10-16T15:38:52;19.10;99.90
27801;DHT22;15181;49.112;11.930;2022-10-16T15:41:19;19.00;99.90
27801;DHT22;15181;49.112;11.930;2022-10-16T15:43:48;19.00;99.90
27801;DHT22;15181;49.112;11.930;2022-10-16T15:46:18;18.90;99.90